sensor_id;sensor_type;location;lat;lon;timestamp;temperature;humidity
25188;DHT22;13141;50.414;8.050;2023-02-03T00:01:44;8.80;99.90
25188;DHT22;13141;50.414;8.050;2023-02-03T00:04:10;8.80;99.90
25188;DHT22;13141;50.414;8.050;2023-02-03T00:06:35;8.80;99.90
25188;DHT22;13141;50.414;8.050;2023-02-03T00:09:01;8.80;99.90
25188;DHT22;13141;50.414;8.050;2023-02-03T00:11:29;8.80;99.90
25188;DHT22;13141;50.414;8.050;2023-02-03T00:13:54;8.80;99.90
25188;DHT22;13141;50.414;8.050;2023-02-03T00:16:20;8.70;99.90
25188;DHT22;13141;50.414;8.050;2023-02-03T00:18:45;8.70;99.90
25188;DHT22;13141;50.414;8.050;2023-02-03T00:21:11;8.80;99.90
25188;DHT22;13141;50.414;8.050;2023-02-03T00:23:39;8.80;99.90
25188;DHT22;13141;50.414;8.050;2023-02-03T00:26:07;9.20;99.90
25188;DHT22;13141;50.414;8.050;2023-02-03T00:28:32;8.90;99.90
25188;DHT22;13141;50.414;8.050;2023-02-03T00:30:58;9.00;99.90
25188;DHT22;13141;50.414;8.050;2023-02-03T00:33:24;9.00;99.90
25188;DHT22;13141;50.414;8.050;2023-02-03T00:35:49;9.00;99.90
25188;DHT22;13141;50.414;8.050;2023-02-03T00:38:15;9.00;99.90
25188;DHT22;13141;50.414;8.050;2023-02-03T00:40:40;9.00;99.90
25188;DHT22;13141;50.414;8.050;2023-02-03T00:43:06;9.00;99.90
25188;DHT22;13141;50.414;8.050;2023-02-03T00:45:31;9.00;99.90
25188;DHT22;13141;50.414;8.050;2023-02-03T00:47:57;9.00;99.90
25188;DHT22;13141;50.414;8.050;2023-02-03T00:50:22;8.90;99.90
25188;DHT22;13141;50.414;8.050;2023-02-03T00:52:48;9.00;99.90
25188;DHT22;13141;50.414;8.050;2023-02-03T00:55:13;8.90;99.90
25188;DHT22;13141;50.414;8.050;2023-02-03T00:57:39;8.80;99.90
25188;DHT22;13141;50.414;8.050;2023-02-03T01:00:06;8.80;99.90
25188;DHT22;13141;50.414;8.050;2023-02-03T01:02:32;8.80;99.90
25188;DHT22;13141;50.414;8.050;2023-02-03T01:04:58;8.80;99.90
25188;DHT22;13141;50.414;8.050;2023-02-03T01:07:23;8.70;99.90
25188;DHT22;13141;50.414;8.050;2023-02-03T01:09:49;8.70;99.90
25188;DHT22;13141;50.414;8.050;2023-02-03T01:12:14;8.70;99.90
25188;DHT22;13141;50.414;8.050;2023-02-03T01:14:40;8.70;99.90
25188;DHT22;13141;50.414;8.050;2023-02-03T01:17:05;8.80;99.90
25188;DHT22;13141;50.414;8.050;2023-02-03T01:19:31;8.90;99.90
25188;DHT22;13141;50.414;8.050;2023-02-03T01:21:56;8.90;99.90
25188;DHT22;13141;50.414;8.050;2023-02-03T01:24:22;8.80;99.90
25188;DHT22;13141;50.414;8.050;2023-02-03T01:26:47;8.70;99.90
25188;DHT22;13141;50.414;8.050;2023-02-03T01:29:13;8.70;99.90
25188;DHT22;13141;50.414;8.050;2023-02-03T01:31:39;8.70;99.90
25188;DHT22;13141;50.414;8.050;2023-02-03T01:34:07;8.70;99.90
25188;DHT22;13141;50.414;8.050;2023-02-03T01:36:35;8.70;99.90
25188;DHT22;13141;50.414;8.050;2023-02-03T01:39:01;8.80;99.90
25188;DHT22;13141;50.414;8.050;2023-02-03T01:41:30;8.70;99.90
25188;DHT22;13141;50.414;8.050;2023-02-03T01:43:57;8.70;99.90
25188;DHT22;13141;50.414;8.050;2023-02-03T01:46:24;8.70;99.90
25188;DHT22;13141;50.414;8.050;2023-02-03T01:49:26;8.70;99.90
25188;DHT22;13141;50.414;8.050;2023-02-03T01:51:44;8.70;99.90
25188;DHT22;13141;50.414;8.050;2023-02-03T01:54:13;8.70;99.90
25188;DHT22;13141;50.414;8.050;2023-02-03T01:56:44;8.70;99.90
25188;DHT22;13141;50.414;8.050;2023-02-03T01:59:12;8.70;99.90
25188;DHT22;13141;50.414;8.050;2023-02-03T02:01:39;8.70;99.90
25188;DHT22;13141;50.414;8.050;2023-02-03T02:04:05;8.80;99.90
25188;DHT22;13141;50.414;8.050;2023-02-03T02:06:31;8.80;99.90
25188;DHT22;13141;50.414;8.050;2023-02-03T02:08:57;8.70;99.90
25188;DHT22;13141;50.414;8.050;2023-02-03T02:11:25;8.70;99.90
25188;DHT22;13141;50.414;8.050;2023-02-03T02:13:52;8.60;99.90
25188;DHT22;13141;50.414;8.050;2023-02-03T02:19:29;8.60;99.90
25188;DHT22;13141;50.414;8.050;2023-02-03T02:22:08;8.70;99.90
25188;DHT22;13141;50.414;8.050;2023-02-03T02:33:13;8.70;99.90
25188;DHT22;13141;50.414;8.050;2023-02-03T02:36:07;8.80;99.90
25188;DHT22;13141;50.414;8.050;2023-02-03T02:38:58;8.80;99.90
25188;DHT22;13141;50.414;8.050;2023-02-03T02:41:34;8.80;99.90
25188;DHT22;13141;50.414;8.050;2023-02-03T02:44:11;8.80;99.90
25188;DHT22;13141;50.414;8.050;2023-02-03T02:46:47;8.90;99.90
25188;DHT22;13141;50.414;8.050;2023-02-03T02:49:36;9.00;99.90
25188;DHT22;13141;50.414;8.050;2023-02-03T02:52:03;9.00;99.90
25188;DHT22;13141;50.414;8.050;2023-02-03T02:54:31;9.00;99.90
25188;DHT22;13141;50.414;8.050;2023-02-03T02:57:00;8.90;99.90
25188;DHT22;13141;50.414;8.050;2023-02-03T02:59:27;9.20;99.90
25188;DHT22;13141;50.414;8.050;2023-02-03T03:01:53;9.00;99.90
25188;DHT22;13141;50.414;8.050;2023-02-03T03:04:23;9.10;99.90
25188;DHT22;13141;50.414;8.050;2023-02-03T03:06:57;9.10;99.90
25188;DHT22;13141;50.414;8.050;2023-02-03T03:09:39;9.00;99.90
25188;DHT22;13141;50.414;8.050;2023-02-03T03:12:19;9.00;99.90
25188;DHT22;13141;50.414;8.050;2023-02-03T03:14:51;9.00;99.90
25188;DHT22;13141;50.414;8.050;2023-02-03T03:17:37;9.00;99.90
25188;DHT22;13141;50.414;8.050;2023-02-03T03:20:09;9.00;99.90
25188;DHT22;13141;50.414;8.050;2023-02-03T03:22:40;8.90;99.90
25188;DHT22;13141;50.414;8.050;2023-02-03T03:25:14;8.90;99.90
25188;DHT22;13141;50.414;8.050;2023-02-03T03:27:45;9.00;99.90
25188;DHT22;13141;50.414;8.050;2023-02-03T03:30:19;9.00;99.90
25188;DHT22;13141;50.414;8.050;2023-02-03T03:32:46;9.10;99.90
25188;DHT22;13141;50.414;8.050;2023-02-03T03:35:12;9.10;99.90
25188;DHT22;13141;50.414;8.050;2023-02-03T03:37:44;9.10;99.90
25188;DHT22;13141;50.414;8.050;2023-02-03T03:40:22;9.30;99.90
25188;DHT22;13141;50.414;8.050;2023-02-03T03:43:37;9.20;99.90
25188;DHT22;13141;50.414;8.050;2023-02-03T03:45:47;9.20;99.90
25188;DHT22;13141;50.414;8.050;2023-02-03T03:48:23;9.30;99.90
25188;DHT22;13141;50.414;8.050;2023-02-03T03:51:05;9.30;99.90
25188;DHT22;13141;50.414;8.050;2023-02-03T03:53:35;9.40;99.90
25188;DHT22;13141;50.414;8.050;2023-02-03T03:56:05;9.50;99.90
25188;DHT22;13141;50.414;8.050;2023-02-03T03:58:32;9.50;99.90
25188;DHT22;13141;50.414;8.050;2023-02-03T04:01:02;9.70;99.90
25188;DHT22;13141;50.414;8.050;2023-02-03T04:03:40;9.70;99.90
25188;DHT22;13141;50.414;8.050;2023-02-03T04:06:07;9.70;99.90
25188;DHT22;13141;50.414;8.050;2023-02-03T04:08:33;9.60;99.90
25188;DHT22;13141;50.414;8.050;2023-02-03T04:10:58;9.50;99.90
25188;DHT22;13141;50.414;8.050;2023-02-03T04:13:24;9.60;99.90
25188;DHT22;13141;50.414;8.050;2023-02-03T04:15:49;9.50;99.90
25188;DHT22;13141;50.414;8.050;2023-02-03T04:18:15;9.40;99.90
25188;DHT22;13141;50.414;8.050;2023-02-03T04:20:41;9.30;99.90
25188;DHT22;13141;50.414;8.050;2023-02-03T04:23:08;9.30;99.90
25188;DHT22;13141;50.414;8.050;2023-02-03T04:25:34;9.10;99.90
25188;DHT22;13141;50.414;8.050;2023-02-03T04:27:59;9.20;99.90
25188;DHT22;13141;50.414;8.050;2023-02-03T04:30:25;9.10;99.90
25188;DHT22;13141;50.414;8.050;2023-02-03T04:32:51;9.10;99.90
25188;DHT22;13141;50.414;8.050;2023-02-03T04:35:17;9.00;99.90
25188;DHT22;13141;50.414;8.050;2023-02-03T04:37:43;9.00;99.90
25188;DHT22;13141;50.414;8.050;2023-02-03T04:40:09;8.90;99.90
25188;DHT22;13141;50.414;8.050;2023-02-03T04:42:36;8.90;99.90
25188;DHT22;13141;50.414;8.050;2023-02-03T04:45:04;8.90;99.90
25188;DHT22;13141;50.414;8.050;2023-02-03T04:47:30;8.90;99.90
25188;DHT22;13141;50.414;8.050;2023-02-03T04:49:55;8.90;99.90
25188;DHT22;13141;50.414;8.050;2023-02-03T04:52:21;9.10;99.90
25188;DHT22;13141;50.414;8.050;2023-02-03T04:54:46;8.80;99.90
25188;DHT22;13141;50.414;8.050;2023-02-03T04:57:12;8.70;99.90
25188;DHT22;13141;50.414;8.050;2023-02-03T04:59:38;8.80;99.90
25188;DHT22;13141;50.414;8.050;2023-02-03T05:02:03;8.70;99.90
25188;DHT22;13141;50.414;8.050;2023-02-03T05:04:29;8.70;99.90
25188;DHT22;13141;50.414;8.050;2023-02-03T05:06:55;8.70;99.90
25188;DHT22;13141;50.414;8.050;2023-02-03T05:09:22;8.90;99.90
25188;DHT22;13141;50.414;8.050;2023-02-03T05:11:47;8.80;99.90
25188;DHT22;13141;50.414;8.050;2023-02-03T05:14:13;8.90;99.90
25188;DHT22;13141;50.414;8.050;2023-02-03T05:16:38;8.90;99.90
25188;DHT22;13141;50.414;8.050;2023-02-03T05:19:04;8.90;99.90
25188;DHT22;13141;50.414;8.050;2023-02-03T05:21:30;9.00;99.90
25188;DHT22;13141;50.414;8.050;2023-02-03T05:23:55;9.00;99.90
25188;DHT22;13141;50.414;8.050;2023-02-03T05:26:21;9.00;99.90
25188;DHT22;13141;50.414;8.050;2023-02-03T05:28:46;9.00;99.90
25188;DHT22;13141;50.414;8.050;2023-02-03T05:31:12;9.00;99.90
25188;DHT22;13141;50.414;8.050;2023-02-03T05:33:37;9.10;99.90
25188;DHT22;13141;50.414;8.050;2023-02-03T05:36:03;9.00;99.90
25188;DHT22;13141;50.414;8.050;2023-02-03T05:38:28;9.00;99.90
25188;DHT22;13141;50.414;8.050;2023-02-03T05:40:54;9.00;99.90
25188;DHT22;13141;50.414;8.050;2023-02-03T05:43:38;9.00;99.90
25188;DHT22;13141;50.414;8.050;2023-02-03T05:46:05;9.10;99.90
25188;DHT22;13141;50.414;8.050;2023-02-03T05:48:31;9.10;99.90
25188;DHT22;13141;50.414;8.050;2023-02-03T05:50:58;9.20;99.90
25188;DHT22;13141;50.414;8.050;2023-02-03T05:53:23;9.20;99.90
25188;DHT22;13141;50.414;8.050;2023-02-03T05:55:50;9.30;99.90
25188;DHT22;13141;50.414;8.050;2023-02-03T05:58:15;9.60;99.90
25188;DHT22;13141;50.414;8.050;2023-02-03T06:00:41;9.40;99.90
25188;DHT22;13141;50.414;8.050;2023-02-03T06:03:07;9.40;99.90
25188;DHT22;13141;50.414;8.050;2023-02-03T06:05:33;9.40;99.90
25188;DHT22;13141;50.414;8.050;2023-02-03T06:07:59;9.50;99.90
25188;DHT22;13141;50.414;8.050;2023-02-03T06:10:26;9.60;99.90
25188;DHT22;13141;50.414;8.050;2023-02-03T06:12:52;9.70;99.90
25188;DHT22;13141;50.414;8.050;2023-02-03T06:15:18;9.60;99.90
25188;DHT22;13141;50.414;8.050;2023-02-03T06:17:47;9.60;99.90
25188;DHT22;13141;50.414;8.050;2023-02-03T06:20:16;9.60;99.90
25188;DHT22;13141;50.414;8.050;2023-02-03T06:22:42;9.60;99.90
25188;DHT22;13141;50.414;8.050;2023-02-03T06:25:08;9.70;99.90
25188;DHT22;13141;50.414;8.050;2023-02-03T06:27:34;9.80;99.90
25188;DHT22;13141;50.414;8.050;2023-02-03T06:29:59;9.60;99.90
25188;DHT22;13141;50.414;8.050;2023-02-03T06:32:25;9.50;99.90
25188;DHT22;13141;50.414;8.050;2023-02-03T06:34:50;9.50;99.90
25188;DHT22;13141;50.414;8.050;2023-02-03T06:37:16;9.60;99.90
25188;DHT22;13141;50.414;8.050;2023-02-03T06:39:41;9.50;99.90
25188;DHT22;13141;50.414;8.050;2023-02-03T06:42:07;9.60;99.90
25188;DHT22;13141;50.414;8.050;2023-02-03T06:44:33;9.50;99.90
25188;DHT22;13141;50.414;8.050;2023-02-03T06:46:58;9.60;99.90
25188;DHT22;13141;50.414;8.050;2023-02-03T06:49:24;9.60;99.90
25188;DHT22;13141;50.414;8.050;2023-02-03T06:51:50;9.60;99.90
25188;DHT22;13141;50.414;8.050;2023-02-03T06:54:17;9.60;99.90
25188;DHT22;13141;50.414;8.050;2023-02-03T06:56:43;9.60;99.90
25188;DHT22;13141;50.414;8.050;2023-02-03T06:59:08;9.70;99.90
25188;DHT22;13141;50.414;8.050;2023-02-03T07:01:35;9.80;99.90
25188;DHT22;13141;50.414;8.050;2023-02-03T07:04:01;9.90;99.90
25188;DHT22;13141;50.414;8.050;2023-02-03T07:06:28;9.80;99.90
25188;DHT22;13141;50.414;8.050;2023-02-03T07:08:57;9.80;99.90
25188;DHT22;13141;50.414;8.050;2023-02-03T07:11:23;9.80;99.90
25188;DHT22;13141;50.414;8.050;2023-02-03T07:13:50;9.80;99.90
25188;DHT22;13141;50.414;8.050;2023-02-03T07:16:16;9.80;99.90
25188;DHT22;13141;50.414;8.050;2023-02-03T07:18:41;9.70;99.90
25188;DHT22;13141;50.414;8.050;2023-02-03T07:21:07;9.70;99.90
25188;DHT22;13141;50.414;8.050;2023-02-03T07:23:33;9.80;99.90
25188;DHT22;13141;50.414;8.050;2023-02-03T07:25:59;9.80;99.90
25188;DHT22;13141;50.414;8.050;2023-02-03T07:28:25;9.80;99.90
25188;DHT22;13141;50.414;8.050;2023-02-03T07:30:51;9.80;99.90
25188;DHT22;13141;50.414;8.050;2023-02-03T07:33:16;9.90;99.90
25188;DHT22;13141;50.414;8.050;2023-02-03T07:35:42;9.80;99.90
25188;DHT22;13141;50.414;8.050;2023-02-03T07:38:07;9.80;99.90
25188;DHT22;13141;50.414;8.050;2023-02-03T07:40:33;9.90;99.90
25188;DHT22;13141;50.414;8.050;2023-02-03T07:42:59;9.90;99.90
25188;DHT22;13141;50.414;8.050;2023-02-03T07:45:25;9.90;99.90
25188;DHT22;13141;50.414;8.050;2023-02-03T07:47:50;9.90;99.90
25188;DHT22;13141;50.414;8.050;2023-02-03T07:50:16;9.80;99.90
25188;DHT22;13141;50.414;8.050;2023-02-03T07:52:42;9.90;99.90
25188;DHT22;13141;50.414;8.050;2023-02-03T07:55:08;9.90;99.90
25188;DHT22;13141;50.414;8.050;2023-02-03T07:57:34;9.90;99.90
25188;DHT22;13141;50.414;8.050;2023-02-03T08:00:02;9.90;99.90
25188;DHT22;13141;50.414;8.050;2023-02-03T08:02:28;10.00;99.90
25188;DHT22;13141;50.414;8.050;2023-02-03T08:04:53;10.00;99.90
25188;DHT22;13141;50.414;8.050;2023-02-03T08:07:22;10.00;99.90
25188;DHT22;13141;50.414;8.050;2023-02-03T08:09:47;10.10;99.90
25188;DHT22;13141;50.414;8.050;2023-02-03T08:12:13;10.20;99.90
25188;DHT22;13141;50.414;8.050;2023-02-03T08:14:38;9.90;99.90
25188;DHT22;13141;50.414;8.050;2023-02-03T08:17:04;9.90;99.90
25188;DHT22;13141;50.414;8.050;2023-02-03T08:19:30;10.00;99.90
25188;DHT22;13141;50.414;8.050;2023-02-03T08:21:55;10.00;99.90
25188;DHT22;13141;50.414;8.050;2023-02-03T08:24:22;10.00;99.90
25188;DHT22;13141;50.414;8.050;2023-02-03T08:26:48;10.00;99.90
25188;DHT22;13141;50.414;8.050;2023-02-03T08:29:13;10.00;99.90
25188;DHT22;13141;50.414;8.050;2023-02-03T08:31:41;10.10;99.90
25188;DHT22;13141;50.414;8.050;2023-02-03T08:34:06;10.10;99.90
25188;DHT22;13141;50.414;8.050;2023-02-03T08:36:32;10.10;99.90
25188;DHT22;13141;50.414;8.050;2023-02-03T08:38:57;10.10;99.90
25188;DHT22;13141;50.414;8.050;2023-02-03T08:41:23;10.10;99.90
25188;DHT22;13141;50.414;8.050;2023-02-03T08:43:48;10.10;99.90
25188;DHT22;13141;50.414;8.050;2023-02-03T08:46:15;10.10;99.90
25188;DHT22;13141;50.414;8.050;2023-02-03T08:48:40;10.20;99.90
25188;DHT22;13141;50.414;8.050;2023-02-03T08:51:11;10.20;99.90
25188;DHT22;13141;50.414;8.050;2023-02-03T08:53:37;10.40;99.90
25188;DHT22;13141;50.414;8.050;2023-02-03T08:56:07;10.30;99.90
25188;DHT22;13141;50.414;8.050;2023-02-03T08:58:33;10.30;99.90
25188;DHT22;13141;50.414;8.050;2023-02-03T09:01:14;10.30;99.90
25188;DHT22;13141;50.414;8.050;2023-02-03T09:03:40;10.70;99.90
25188;DHT22;13141;50.414;8.050;2023-02-03T09:06:07;10.30;99.90
25188;DHT22;13141;50.414;8.050;2023-02-03T09:08:33;10.40;99.90
25188;DHT22;13141;50.414;8.050;2023-02-03T09:10:59;10.40;99.90
25188;DHT22;13141;50.414;8.050;2023-02-03T09:13:24;10.40;99.90
25188;DHT22;13141;50.414;8.050;2023-02-03T09:15:50;10.50;99.90
25188;DHT22;13141;50.414;8.050;2023-02-03T09:18:16;10.40;99.90
25188;DHT22;13141;50.414;8.050;2023-02-03T09:20:41;10.40;99.90
25188;DHT22;13141;50.414;8.050;2023-02-03T09:23:07;10.40;99.90
25188;DHT22;13141;50.414;8.050;2023-02-03T09:25:33;10.40;99.90
25188;DHT22;13141;50.414;8.050;2023-02-03T09:28:00;10.40;99.90
25188;DHT22;13141;50.414;8.050;2023-02-03T09:30:27;10.50;99.90
25188;DHT22;13141;50.414;8.050;2023-02-03T09:36:06;10.50;99.90
25188;DHT22;13141;50.414;8.050;2023-02-03T09:38:33;10.60;99.90
25188;DHT22;13141;50.414;8.050;2023-02-03T09:41:39;10.60;99.90
25188;DHT22;13141;50.414;8.050;2023-02-03T09:47:23;10.60;99.90
25188;DHT22;13141;50.414;8.050;2023-02-03T09:49:57;10.50;99.90
25188;DHT22;13141;50.414;8.050;2023-02-03T09:52:28;10.60;99.90
25188;DHT22;13141;50.414;8.050;2023-02-03T09:55:09;10.60;99.90
25188;DHT22;13141;50.414;8.050;2023-02-03T09:57:43;10.70;99.90
25188;DHT22;13141;50.414;8.050;2023-02-03T10:00:20;10.60;99.90
25188;DHT22;13141;50.414;8.050;2023-02-03T10:03:06;10.60;99.90
25188;DHT22;13141;50.414;8.050;2023-02-03T10:08:35;10.50;99.90
25188;DHT22;13141;50.414;8.050;2023-02-03T10:19:20;10.50;99.90
25188;DHT22;13141;50.414;8.050;2023-02-03T10:21:58;10.50;99.90
25188;DHT22;13141;50.414;8.050;2023-02-03T10:24:30;10.50;99.90
25188;DHT22;13141;50.414;8.050;2023-02-03T10:27:02;10.50;99.90
25188;DHT22;13141;50.414;8.050;2023-02-03T10:29:41;10.50;99.90
25188;DHT22;13141;50.414;8.050;2023-02-03T10:32:09;10.40;99.90
25188;DHT22;13141;50.414;8.050;2023-02-03T10:34:35;10.40;99.90
25188;DHT22;13141;50.414;8.050;2023-02-03T10:37:16;10.40;99.90
25188;DHT22;13141;50.414;8.050;2023-02-03T10:39:48;10.50;99.90
25188;DHT22;13141;50.414;8.050;2023-02-03T10:42:15;10.50;99.90
25188;DHT22;13141;50.414;8.050;2023-02-03T10:44:45;10.40;99.90
25188;DHT22;13141;50.414;8.050;2023-02-03T10:47:30;10.30;99.90
25188;DHT22;13141;50.414;8.050;2023-02-03T10:50:02;10.30;99.90
25188;DHT22;13141;50.414;8.050;2023-02-03T10:52:33;10.20;99.90
25188;DHT22;13141;50.414;8.050;2023-02-03T10:57:51;10.20;99.90
25188;DHT22;13141;50.414;8.050;2023-02-03T11:02:43;10.10;99.90
25188;DHT22;13141;50.414;8.050;2023-02-03T11:05:17;9.90;99.90
25188;DHT22;13141;50.414;8.050;2023-02-03T11:07:44;9.90;99.90
25188;DHT22;13141;50.414;8.050;2023-02-03T11:10:31;9.90;99.90
25188;DHT22;13141;50.414;8.050;2023-02-03T11:13:22;9.90;99.90
25188;DHT22;13141;50.414;8.050;2023-02-03T11:16:03;9.90;99.90
25188;DHT22;13141;50.414;8.050;2023-02-03T11:18:40;9.80;99.90
25188;DHT22;13141;50.414;8.050;2023-02-03T11:24:21;9.80;99.90
25188;DHT22;13141;50.414;8.050;2023-02-03T11:27:04;9.80;99.90
25188;DHT22;13141;50.414;8.050;2023-02-03T11:29:48;9.90;99.90
25188;DHT22;13141;50.414;8.050;2023-02-03T11:32:36;9.90;99.90
25188;DHT22;13141;50.414;8.050;2023-02-03T11:37:42;10.00;99.90
25188;DHT22;13141;50.414;8.050;2023-02-03T11:42:41;10.20;99.90
25188;DHT22;13141;50.414;8.050;2023-02-03T11:45:14;10.00;99.90
25188;DHT22;13141;50.414;8.050;2023-02-03T11:47:57;10.00;99.90
25188;DHT22;13141;50.414;8.050;2023-02-03T11:53:14;10.10;99.90
25188;DHT22;13141;50.414;8.050;2023-02-03T11:55:56;10.00;99.90
25188;DHT22;13141;50.414;8.050;2023-02-03T12:04:42;10.20;99.90
25188;DHT22;13141;50.414;8.050;2023-02-03T12:07:30;10.20;99.90
25188;DHT22;13141;50.414;8.050;2023-02-03T12:12:50;10.10;99.90
25188;DHT22;13141;50.414;8.050;2023-02-03T12:24:11;10.10;99.90
25188;DHT22;13141;50.414;8.050;2023-02-03T12:29:35;10.20;99.90
25188;DHT22;13141;50.414;8.050;2023-02-03T12:32:28;10.20;99.90
25188;DHT22;13141;50.414;8.050;2023-02-03T12:37:39;10.20;99.90
25188;DHT22;13141;50.414;8.050;2023-02-03T12:40:35;10.20;99.90
25188;DHT22;13141;50.414;8.050;2023-02-03T12:43:35;10.20;99.90
25188;DHT22;13141;50.414;8.050;2023-02-03T12:46:44;10.20;99.90
25188;DHT22;13141;50.414;8.050;2023-02-03T12:52:00;10.20;99.90
25188;DHT22;13141;50.414;8.050;2023-02-03T12:54:42;10.30;99.90
25188;DHT22;13141;50.414;8.050;2023-02-03T12:57:27;10.30;99.90
25188;DHT22;13141;50.414;8.050;2023-02-03T13:00:09;10.30;99.90
25188;DHT22;13141;50.414;8.050;2023-02-03T13:02:58;10.40;99.90
25188;DHT22;13141;50.414;8.050;2023-02-03T13:05:42;10.40;99.90
25188;DHT22;13141;50.414;8.050;2023-02-03T13:08:17;10.40;99.90
25188;DHT22;13141;50.414;8.050;2023-02-03T13:10:56;10.50;99.90
25188;DHT22;13141;50.414;8.050;2023-02-03T13:13:34;10.40;99.90
25188;DHT22;13141;50.414;8.050;2023-02-03T13:16:05;10.40;99.90
25188;DHT22;13141;50.414;8.050;2023-02-03T13:18:35;10.50;99.90
25188;DHT22;13141;50.414;8.050;2023-02-03T13:21:01;10.40;99.90
25188;DHT22;13141;50.414;8.050;2023-02-03T13:23:27;10.40;99.90
25188;DHT22;13141;50.414;8.050;2023-02-03T13:26:18;10.50;99.90
25188;DHT22;13141;50.414;8.050;2023-02-03T13:28:53;10.40;99.90
25188;DHT22;13141;50.414;8.050;2023-02-03T13:31:58;10.50;99.90
25188;DHT22;13141;50.414;8.050;2023-02-03T13:34:47;10.50;99.90
25188;DHT22;13141;50.414;8.050;2023-02-03T13:42:53;10.40;99.90
25188;DHT22;13141;50.414;8.050;2023-02-03T13:45:27;10.40;99.90
25188;DHT22;13141;50.414;8.050;2023-02-03T13:48:06;10.40;99.90
25188;DHT22;13141;50.414;8.050;2023-02-03T13:50:32;10.40;99.90
25188;DHT22;13141;50.414;8.050;2023-02-03T13:53:19;10.40;99.90
25188;DHT22;13141;50.414;8.050;2023-02-03T13:55:57;10.30;99.90
25188;DHT22;13141;50.414;8.050;2023-02-03T13:58:30;10.30;99.90
25188;DHT22;13141;50.414;8.050;2023-02-03T14:05:54;10.40;99.90
25188;DHT22;13141;50.414;8.050;2023-02-03T14:16:44;10.40;99.90
25188;DHT22;13141;50.414;8.050;2023-02-03T14:22:00;10.40;99.90
25188;DHT22;13141;50.414;8.050;2023-02-03T14:24:38;10.50;99.90
25188;DHT22;13141;50.414;8.050;2023-02-03T14:27:15;10.50;99.90
25188;DHT22;13141;50.414;8.050;2023-02-03T14:29:41;10.50;99.90
25188;DHT22;13141;50.414;8.050;2023-02-03T14:32:08;10.50;99.90
25188;DHT22;13141;50.414;8.050;2023-02-03T14:34:43;10.50;99.90
25188;DHT22;13141;50.414;8.050;2023-02-03T14:37:25;10.50;99.90
25188;DHT22;13141;50.414;8.050;2023-02-03T14:48:09;10.50;99.90
25188;DHT22;13141;50.414;8.050;2023-02-03T14:59:35;10.50;99.90
25188;DHT22;13141;50.414;8.050;2023-02-03T15:04:26;10.60;99.90
25188;DHT22;13141;50.414;8.050;2023-02-03T15:06:52;10.60;99.90
25188;DHT22;13141;50.414;8.050;2023-02-03T15:09:38;10.60;99.90
25188;DHT22;13141;50.414;8.050;2023-02-03T15:12:18;10.60;99.90
25188;DHT22;13141;50.414;8.050;2023-02-03T15:14:46;10.60;99.90
25188;DHT22;13141;50.414;8.050;2023-02-03T15:17:22;10.60;99.90
25188;DHT22;13141;50.414;8.050;2023-02-03T15:19:48;10.70;99.90
25188;DHT22;13141;50.414;8.050;2023-02-03T15:22:26;10.70;99.90
25188;DHT22;13141;50.414;8.050;2023-02-03T15:25:00;10.60;99.90
25188;DHT22;13141;50.414;8.050;2023-02-03T15:27:30;10.60;99.90
25188;DHT22;13141;50.414;8.050;2023-02-03T15:29:57;10.60;99.90
25188;DHT22;13141;50.414;8.050;2023-02-03T15:32:36;10.60;99.90
25188;DHT22;13141;50.414;8.050;2023-02-03T15:35:06;10.60;99.90
25188;DHT22;13141;50.414;8.050;2023-02-03T15:37:48;10.60;99.90
25188;DHT22;13141;50.414;8.050;2023-02-03T15:40:21;10.60;99.90
25188;DHT22;13141;50.414;8.050;2023-02-03T15:42:55;10.60;99.90
25188;DHT22;13141;50.414;8.050;2023-02-03T15:45:36;10.60;99.90
25188;DHT22;13141;50.414;8.050;2023-02-03T15:48:27;10.60;99.90
25188;DHT22;13141;50.414;8.050;2023-02-03T15:51:04;10.60;99.90
25188;DHT22;13141;50.414;8.050;2023-02-03T15:53:33;10.50;99.90
25188;DHT22;13141;50.414;8.050;2023-02-03T15:56:02;10.60;99.90
25188;DHT22;13141;50.414;8.050;2023-02-03T15:58:33;10.50;99.90
25188;DHT22;13141;50.414;8.050;2023-02-03T16:01:08;10.50;99.90
25188;DHT22;13141;50.414;8.050;2023-02-03T16:03:41;10.50;99.90
25188;DHT22;13141;50.414;8.050;2023-02-03T16:06:34;10.50;99.90
25188;DHT22;13141;50.414;8.050;2023-02-03T16:09:05;10.60;99.90
25188;DHT22;13141;50.414;8.050;2023-02-03T16:11:38;10.60;99.90
25188;DHT22;13141;50.414;8.050;2023-02-03T16:14:09;10.60;99.90
25188;DHT22;13141;50.414;8.050;2023-02-03T16:16:48;10.60;99.90
25188;DHT22;13141;50.414;8.050;2023-02-03T16:19:20;10.60;99.90
25188;DHT22;13141;50.414;8.050;2023-02-03T16:27:19;10.60;99.90
25188;DHT22;13141;50.414;8.050;2023-02-03T16:29:45;10.60;99.90
25188;DHT22;13141;50.414;8.050;2023-02-03T16:32:29;10.20;99.90
25188;DHT22;13141;50.414;8.050;2023-02-03T16:35:13;10.50;99.90
25188;DHT22;13141;50.414;8.050;2023-02-03T16:38:24;10.60;99.90
25188;DHT22;13141;50.414;8.050;2023-02-03T16:41:15;10.50;99.90
25188;DHT22;13141;50.414;8.050;2023-02-03T16:43:59;10.50;99.90
25188;DHT22;13141;50.414;8.050;2023-02-03T16:46:45;10.80;99.90
25188;DHT22;13141;50.414;8.050;2023-02-03T16:49:30;10.60;99.90
25188;DHT22;13141;50.414;8.050;2023-02-03T16:52:14;10.60;99.90
25188;DHT22;13141;50.414;8.050;2023-02-03T16:54:39;10.50;99.90
25188;DHT22;13141;50.414;8.050;2023-02-03T16:57:05;10.50;99.90
25188;DHT22;13141;50.414;8.050;2023-02-03T16:59:30;10.60;99.90
25188;DHT22;13141;50.414;8.050;2023-02-03T17:01:56;10.50;99.90
25188;DHT22;13141;50.414;8.050;2023-02-03T17:04:21;10.60;99.90
25188;DHT22;13141;50.414;8.050;2023-02-03T17:06:50;10.60;99.90
25188;DHT22;13141;50.414;8.050;2023-02-03T17:09:19;10.60;99.90
25188;DHT22;13141;50.414;8.050;2023-02-03T17:11:48;10.50;99.90
25188;DHT22;13141;50.414;8.050;2023-02-03T17:14:13;10.50;99.90
25188;DHT22;13141;50.414;8.050;2023-02-03T17:16:39;10.50;99.90
25188;DHT22;13141;50.414;8.050;2023-02-03T17:19:08;10.50;99.90
25188;DHT22;13141;50.414;8.050;2023-02-03T17:21:34;10.50;99.90
25188;DHT22;13141;50.414;8.050;2023-02-03T17:24:00;10.40;99.90
25188;DHT22;13141;50.414;8.050;2023-02-03T17:26:25;10.40;99.90
25188;DHT22;13141;50.414;8.050;2023-02-03T17:28:51;10.30;99.90
25188;DHT22;13141;50.414;8.050;2023-02-03T17:31:18;10.30;99.90
25188;DHT22;13141;50.414;8.050;2023-02-03T17:33:44;10.20;99.90
25188;DHT22;13141;50.414;8.050;2023-02-03T17:36:13;10.10;99.90
25188;DHT22;13141;50.414;8.050;2023-02-03T17:38:44;10.10;99.90
25188;DHT22;13141;50.414;8.050;2023-02-03T17:41:15;10.00;99.90
25188;DHT22;13141;50.414;8.050;2023-02-03T17:43:42;10.10;99.90
25188;DHT22;13141;50.414;8.050;2023-02-03T17:46:09;9.90;99.90
25188;DHT22;13141;50.414;8.050;2023-02-03T17:48:36;9.90;99.90
25188;DHT22;13141;50.414;8.050;2023-02-03T17:51:07;9.90;99.90
25188;DHT22;13141;50.414;8.050;2023-02-03T17:53:33;9.90;99.90
25188;DHT22;13141;50.414;8.050;2023-02-03T17:56:12;9.90;99.90
25188;DHT22;13141;50.414;8.050;2023-02-03T17:58:38;10.10;99.90
25188;DHT22;13141;50.414;8.050;2023-02-03T18:01:18;9.80;99.90